sensor_id;sensor_type;location;lat;lon;timestamp;temperature;humidity
81800;DHT22;71195;52.528;5.704;2023-08-06T00:00:13;17.20;68.60
81800;DHT22;71195;52.528;5.704;2023-08-06T00:02:42;17.20;68.60
81800;DHT22;71195;52.528;5.704;2023-08-06T00:05:12;17.30;68.60
81800;DHT22;71195;52.528;5.704;2023-08-06T00:07:44;17.30;68.60
81800;DHT22;71195;52.528;5.704;2023-08-06T00:10:13;17.30;68.60
81800;DHT22;71195;52.528;5.704;2023-08-06T00:12:45;17.30;68.70
81800;DHT22;71195;52.528;5.704;2023-08-06T00:15:14;17.30;68.70
81800;DHT22;71195;52.528;5.704;2023-08-06T00:17:44;17.30;68.70
81800;DHT22;71195;52.528;5.704;2023-08-06T00:20:13;17.30;68.70
81800;DHT22;71195;52.528;5.704;2023-08-06T00:22:42;17.30;68.70
81800;DHT22;71195;52.528;5.704;2023-08-06T00:25:11;17.30;68.70
81800;DHT22;71195;52.528;5.704;2023-08-06T00:27:41;17.30;68.70
81800;DHT22;71195;52.528;5.704;2023-08-06T00:30:13;17.30;68.80
81800;DHT22;71195;52.528;5.704;2023-08-06T00:32:42;17.30;68.90
81800;DHT22;71195;52.528;5.704;2023-08-06T00:35:11;17.20;68.90
81800;DHT22;71195;52.528;5.704;2023-08-06T00:37:41;17.20;68.90
81800;DHT22;71195;52.528;5.704;2023-08-06T00:40:13;17.20;69.00
81800;DHT22;71195;52.528;5.704;2023-08-06T00:42:42;17.20;68.90
81800;DHT22;71195;52.528;5.704;2023-08-06T00:45:15;17.20;68.90
81800;DHT22;71195;52.528;5.704;2023-08-06T00:47:44;17.20;68.90
81800;DHT22;71195;52.528;5.704;2023-08-06T00:50:14;17.20;68.90
81800;DHT22;71195;52.528;5.704;2023-08-06T00:52:44;17.20;68.90
81800;DHT22;71195;52.528;5.704;2023-08-06T00:55:13;17.20;68.80
81800;DHT22;71195;52.528;5.704;2023-08-06T00:57:42;17.20;68.90
81800;DHT22;71195;52.528;5.704;2023-08-06T01:00:14;17.20;68.90
81800;DHT22;71195;52.528;5.704;2023-08-06T01:02:44;17.20;69.00
81800;DHT22;71195;52.528;5.704;2023-08-06T01:05:13;17.20;69.00
81800;DHT22;71195;52.528;5.704;2023-08-06T01:07:51;17.20;69.00
81800;DHT22;71195;52.528;5.704;2023-08-06T01:10:27;17.20;69.00
81800;DHT22;71195;52.528;5.704;2023-08-06T01:13:06;17.20;69.00
81800;DHT22;71195;52.528;5.704;2023-08-06T01:15:46;17.20;69.00
81800;DHT22;71195;52.528;5.704;2023-08-06T01:18:18;17.20;69.00
81800;DHT22;71195;52.528;5.704;2023-08-06T01:20:50;17.20;69.00
81800;DHT22;71195;52.528;5.704;2023-08-06T01:23:19;17.20;68.90
81800;DHT22;71195;52.528;5.704;2023-08-06T01:25:56;17.20;69.00
81800;DHT22;71195;52.528;5.704;2023-08-06T01:28:32;17.20;69.00
81800;DHT22;71195;52.528;5.704;2023-08-06T01:31:05;17.20;69.00
81800;DHT22;71195;52.528;5.704;2023-08-06T01:33:39;17.20;69.00
81800;DHT22;71195;52.528;5.704;2023-08-06T01:36:13;17.20;69.10
81800;DHT22;71195;52.528;5.704;2023-08-06T01:38:43;17.20;69.10
81800;DHT22;71195;52.528;5.704;2023-08-06T01:41:13;17.20;69.10
81800;DHT22;71195;52.528;5.704;2023-08-06T01:43:42;17.10;69.10
81800;DHT22;71195;52.528;5.704;2023-08-06T01:46:11;17.20;69.10
81800;DHT22;71195;52.528;5.704;2023-08-06T01:48:40;17.10;69.20
81800;DHT22;71195;52.528;5.704;2023-08-06T01:51:12;17.20;69.20
81800;DHT22;71195;52.528;5.704;2023-08-06T01:53:42;17.20;69.10
81800;DHT22;71195;52.528;5.704;2023-08-06T01:56:11;17.10;69.20
81800;DHT22;71195;52.528;5.704;2023-08-06T01:58:41;17.10;69.10
81800;DHT22;71195;52.528;5.704;2023-08-06T02:01:10;17.10;69.10
81800;DHT22;71195;52.528;5.704;2023-08-06T02:03:39;17.10;69.20
81800;DHT22;71195;52.528;5.704;2023-08-06T02:06:13;17.10;69.20
81800;DHT22;71195;52.528;5.704;2023-08-06T02:08:42;17.00;69.30
81800;DHT22;71195;52.528;5.704;2023-08-06T02:11:11;17.00;69.20
81800;DHT22;71195;52.528;5.704;2023-08-06T02:13:40;17.00;69.30
81800;DHT22;71195;52.528;5.704;2023-08-06T02:16:10;17.10;69.30
81800;DHT22;71195;52.528;5.704;2023-08-06T02:18:39;17.10;69.30
81800;DHT22;71195;52.528;5.704;2023-08-06T02:21:08;17.10;69.30
81800;DHT22;71195;52.528;5.704;2023-08-06T02:23:40;17.10;69.40
81800;DHT22;71195;52.528;5.704;2023-08-06T02:26:10;17.10;69.40
81800;DHT22;71195;52.528;5.704;2023-08-06T02:28:39;17.10;69.30
81800;DHT22;71195;52.528;5.704;2023-08-06T02:31:08;17.00;69.30
81800;DHT22;71195;52.528;5.704;2023-08-06T02:33:37;17.00;69.30
81800;DHT22;71195;52.528;5.704;2023-08-06T02:36:06;17.10;69.30
81800;DHT22;71195;52.528;5.704;2023-08-06T02:38:36;17.00;69.20
81800;DHT22;71195;52.528;5.704;2023-08-06T02:41:07;17.00;69.30
81800;DHT22;71195;52.528;5.704;2023-08-06T02:43:37;17.00;69.30
81800;DHT22;71195;52.528;5.704;2023-08-06T02:46:07;17.10;69.30
81800;DHT22;71195;52.528;5.704;2023-08-06T02:48:36;17.00;69.30
81800;DHT22;71195;52.528;5.704;2023-08-06T02:51:05;17.00;69.30
81800;DHT22;71195;52.528;5.704;2023-08-06T02:53:35;17.00;69.30
81800;DHT22;71195;52.528;5.704;2023-08-06T02:56:10;17.00;69.40
81800;DHT22;71195;52.528;5.704;2023-08-06T02:58:52;17.00;69.30
81800;DHT22;71195;52.528;5.704;2023-08-06T03:01:31;17.00;69.30
81800;DHT22;71195;52.528;5.704;2023-08-06T03:04:07;17.00;69.30
81800;DHT22;71195;52.528;5.704;2023-08-06T03:06:41;17.00;69.30
81800;DHT22;71195;52.528;5.704;2023-08-06T03:09:10;17.00;69.30
81800;DHT22;71195;52.528;5.704;2023-08-06T03:11:42;17.00;69.40
81800;DHT22;71195;52.528;5.704;2023-08-06T03:14:14;17.00;69.30
81800;DHT22;71195;52.528;5.704;2023-08-06T03:16:44;17.00;69.40
81800;DHT22;71195;52.528;5.704;2023-08-06T03:19:16;16.90;69.40
81800;DHT22;71195;52.528;5.704;2023-08-06T03:21:45;16.90;69.30
81800;DHT22;71195;52.528;5.704;2023-08-06T03:24:15;16.90;69.30
81800;DHT22;71195;52.528;5.704;2023-08-06T03:26:48;16.90;69.30
81800;DHT22;71195;52.528;5.704;2023-08-06T03:29:18;16.90;69.40
81800;DHT22;71195;52.528;5.704;2023-08-06T03:31:48;16.90;69.40
81800;DHT22;71195;52.528;5.704;2023-08-06T03:34:17;16.90;69.40
81800;DHT22;71195;52.528;5.704;2023-08-06T03:36:48;16.90;69.50
81800;DHT22;71195;52.528;5.704;2023-08-06T03:39:17;16.90;69.50
81800;DHT22;71195;52.528;5.704;2023-08-06T03:41:49;16.90;69.50
81800;DHT22;71195;52.528;5.704;2023-08-06T03:44:19;16.90;69.50
81800;DHT22;71195;52.528;5.704;2023-08-06T03:46:48;16.90;69.50
81800;DHT22;71195;52.528;5.704;2023-08-06T03:49:17;16.90;69.50
81800;DHT22;71195;52.528;5.704;2023-08-06T03:51:47;16.90;69.50
81800;DHT22;71195;52.528;5.704;2023-08-06T03:54:16;16.90;69.60
81800;DHT22;71195;52.528;5.704;2023-08-06T03:56:46;16.90;69.60
81800;DHT22;71195;52.528;5.704;2023-08-06T03:59:19;16.90;69.60
81800;DHT22;71195;52.528;5.704;2023-08-06T04:01:49;16.90;69.70
81800;DHT22;71195;52.528;5.704;2023-08-06T04:04:18;16.90;69.70
81800;DHT22;71195;52.528;5.704;2023-08-06T04:06:47;16.90;69.70
81800;DHT22;71195;52.528;5.704;2023-08-06T04:09:16;16.90;69.70
81800;DHT22;71195;52.528;5.704;2023-08-06T04:11:45;16.90;69.70
81800;DHT22;71195;52.528;5.704;2023-08-06T04:14:15;16.90;69.70
81800;DHT22;71195;52.528;5.704;2023-08-06T04:16:47;16.90;69.70
81800;DHT22;71195;52.528;5.704;2023-08-06T04:19:16;16.90;69.70
81800;DHT22;71195;52.528;5.704;2023-08-06T04:21:45;16.90;69.70
81800;DHT22;71195;52.528;5.704;2023-08-06T04:24:14;16.90;69.70
81800;DHT22;71195;52.528;5.704;2023-08-06T04:26:44;16.90;69.80
81800;DHT22;71195;52.528;5.704;2023-08-06T04:29:13;16.90;69.80
81800;DHT22;71195;52.528;5.704;2023-08-06T04:31:42;16.90;69.90
81800;DHT22;71195;52.528;5.704;2023-08-06T04:34:15;16.90;69.80
81800;DHT22;71195;52.528;5.704;2023-08-06T04:36:44;16.90;69.90
81800;DHT22;71195;52.528;5.704;2023-08-06T04:39:14;16.90;69.90
81800;DHT22;71195;52.528;5.704;2023-08-06T04:41:43;16.90;69.90
81800;DHT22;71195;52.528;5.704;2023-08-06T04:44:12;16.90;70.00
81800;DHT22;71195;52.528;5.704;2023-08-06T04:46:41;16.90;69.90
81800;DHT22;71195;52.528;5.704;2023-08-06T04:49:10;16.90;70.00
81800;DHT22;71195;52.528;5.704;2023-08-06T04:51:42;16.90;70.00
81800;DHT22;71195;52.528;5.704;2023-08-06T04:54:11;16.90;70.00
81800;DHT22;71195;52.528;5.704;2023-08-06T04:56:41;16.90;69.90
81800;DHT22;71195;52.528;5.704;2023-08-06T04:59:10;16.90;69.90
81800;DHT22;71195;52.528;5.704;2023-08-06T05:01:39;16.90;69.90
81800;DHT22;71195;52.528;5.704;2023-08-06T05:04:08;16.90;69.90
81800;DHT22;71195;52.528;5.704;2023-08-06T05:06:37;16.90;69.90
81800;DHT22;71195;52.528;5.704;2023-08-06T05:09:10;16.90;69.90
81800;DHT22;71195;52.528;5.704;2023-08-06T05:11:39;16.90;69.90
81800;DHT22;71195;52.528;5.704;2023-08-06T05:14:08;16.90;69.90
81800;DHT22;71195;52.528;5.704;2023-08-06T05:16:37;16.90;69.90
81800;DHT22;71195;52.528;5.704;2023-08-06T05:19:06;16.90;70.00
81800;DHT22;71195;52.528;5.704;2023-08-06T05:21:36;16.90;70.00
81800;DHT22;71195;52.528;5.704;2023-08-06T05:24:05;16.90;70.00
81800;DHT22;71195;52.528;5.704;2023-08-06T05:26:37;17.00;69.90
81800;DHT22;71195;52.528;5.704;2023-08-06T05:29:06;16.90;70.00
81800;DHT22;71195;52.528;5.704;2023-08-06T05:31:36;16.90;70.00
81800;DHT22;71195;52.528;5.704;2023-08-06T05:34:05;17.00;69.90
81800;DHT22;71195;52.528;5.704;2023-08-06T05:36:34;17.00;69.90
81800;DHT22;71195;52.528;5.704;2023-08-06T05:39:03;17.00;70.00
81800;DHT22;71195;52.528;5.704;2023-08-06T05:41:32;17.00;70.00
81800;DHT22;71195;52.528;5.704;2023-08-06T05:44:04;17.00;69.90
81800;DHT22;71195;52.528;5.704;2023-08-06T05:46:33;17.00;69.90
81800;DHT22;71195;52.528;5.704;2023-08-06T05:49:03;17.00;69.90
81800;DHT22;71195;52.528;5.704;2023-08-06T05:51:32;17.10;69.90
81800;DHT22;71195;52.528;5.704;2023-08-06T05:54:01;17.10;69.90
81800;DHT22;71195;52.528;5.704;2023-08-06T05:56:30;17.10;70.00
81800;DHT22;71195;52.528;5.704;2023-08-06T05:59:00;17.10;69.90
81800;DHT22;71195;52.528;5.704;2023-08-06T06:01:31;17.20;69.90
81800;DHT22;71195;52.528;5.704;2023-08-06T06:04:01;17.20;69.90
81800;DHT22;71195;52.528;5.704;2023-08-06T06:06:30;17.20;69.90
81800;DHT22;71195;52.528;5.704;2023-08-06T06:08:59;17.20;69.90
81800;DHT22;71195;52.528;5.704;2023-08-06T06:11:28;17.30;69.90
81800;DHT22;71195;52.528;5.704;2023-08-06T06:13:57;17.40;69.90
81800;DHT22;71195;52.528;5.704;2023-08-06T06:16:27;17.40;69.80
81800;DHT22;71195;52.528;5.704;2023-08-06T06:18:58;17.50;69.80
81800;DHT22;71195;52.528;5.704;2023-08-06T06:21:28;17.50;69.80
81800;DHT22;71195;52.528;5.704;2023-08-06T06:23:57;17.50;69.90
81800;DHT22;71195;52.528;5.704;2023-08-06T06:26:26;17.50;69.90
81800;DHT22;71195;52.528;5.704;2023-08-06T06:28:55;17.50;69.80
81800;DHT22;71195;52.528;5.704;2023-08-06T06:31:24;17.60;69.70
81800;DHT22;71195;52.528;5.704;2023-08-06T06:33:54;17.60;69.80
81800;DHT22;71195;52.528;5.704;2023-08-06T06:36:26;17.60;69.80
81800;DHT22;71195;52.528;5.704;2023-08-06T06:38:55;17.70;69.70
81800;DHT22;71195;52.528;5.704;2023-08-06T06:41:24;17.80;69.70
81800;DHT22;71195;52.528;5.704;2023-08-06T06:44:00;17.80;69.60
81800;DHT22;71195;52.528;5.704;2023-08-06T06:46:30;17.80;69.50
81800;DHT22;71195;52.528;5.704;2023-08-06T06:48:59;17.90;69.60
81800;DHT22;71195;52.528;5.704;2023-08-06T06:51:31;18.00;69.60
81800;DHT22;71195;52.528;5.704;2023-08-06T06:54:00;18.00;69.60
81800;DHT22;71195;52.528;5.704;2023-08-06T06:56:29;18.00;69.50
81800;DHT22;71195;52.528;5.704;2023-08-06T06:58:59;18.00;69.50
81800;DHT22;71195;52.528;5.704;2023-08-06T07:01:28;18.00;69.60
81800;DHT22;71195;52.528;5.704;2023-08-06T07:03:57;18.10;69.50
81800;DHT22;71195;52.528;5.704;2023-08-06T07:06:33;18.10;69.50
81800;DHT22;71195;52.528;5.704;2023-08-06T07:09:02;18.20;69.50
81800;DHT22;71195;52.528;5.704;2023-08-06T07:11:32;18.20;69.50
81800;DHT22;71195;52.528;5.704;2023-08-06T07:14:01;18.20;69.50
81800;DHT22;71195;52.528;5.704;2023-08-06T07:16:30;18.20;69.60
81800;DHT22;71195;52.528;5.704;2023-08-06T07:19:00;18.20;69.50
81800;DHT22;71195;52.528;5.704;2023-08-06T07:21:33;18.20;69.50
81800;DHT22;71195;52.528;5.704;2023-08-06T07:24:03;18.30;69.50
81800;DHT22;71195;52.528;5.704;2023-08-06T07:26:32;18.30;69.60
81800;DHT22;71195;52.528;5.704;2023-08-06T07:29:01;18.30;69.60
81800;DHT22;71195;52.528;5.704;2023-08-06T07:31:31;18.30;69.50
81800;DHT22;71195;52.528;5.704;2023-08-06T07:34:00;18.30;69.60
81800;DHT22;71195;52.528;5.704;2023-08-06T07:36:29;18.40;69.50
81800;DHT22;71195;52.528;5.704;2023-08-06T07:39:01;18.40;69.50
81800;DHT22;71195;52.528;5.704;2023-08-06T07:41:32;18.40;69.60
81800;DHT22;71195;52.528;5.704;2023-08-06T07:44:01;18.40;69.60
81800;DHT22;71195;52.528;5.704;2023-08-06T07:46:30;18.50;69.50
81800;DHT22;71195;52.528;5.704;2023-08-06T07:49:00;18.40;69.50
81800;DHT22;71195;52.528;5.704;2023-08-06T07:51:29;18.40;69.60
81800;DHT22;71195;52.528;5.704;2023-08-06T07:54:01;18.40;69.60
81800;DHT22;71195;52.528;5.704;2023-08-06T07:56:30;18.40;69.60
81800;DHT22;71195;52.528;5.704;2023-08-06T07:58:59;18.50;69.60
81800;DHT22;71195;52.528;5.704;2023-08-06T08:01:28;18.50;69.60
81800;DHT22;71195;52.528;5.704;2023-08-06T08:03:57;18.50;69.50
81800;DHT22;71195;52.528;5.704;2023-08-06T08:06:27;18.50;69.60
81800;DHT22;71195;52.528;5.704;2023-08-06T08:08:56;18.50;69.60
81800;DHT22;71195;52.528;5.704;2023-08-06T08:11:28;18.50;69.50
81800;DHT22;71195;52.528;5.704;2023-08-06T08:13:57;18.50;69.60
81800;DHT22;71195;52.528;5.704;2023-08-06T08:16:26;18.50;69.60
81800;DHT22;71195;52.528;5.704;2023-08-06T08:18:55;18.50;69.60
81800;DHT22;71195;52.528;5.704;2023-08-06T08:21:25;18.50;69.50
81800;DHT22;71195;52.528;5.704;2023-08-06T08:23:54;18.50;69.60
81800;DHT22;71195;52.528;5.704;2023-08-06T08:26:23;18.60;69.60
81800;DHT22;71195;52.528;5.704;2023-08-06T08:28:56;18.60;69.50
81800;DHT22;71195;52.528;5.704;2023-08-06T08:31:25;18.60;69.50
81800;DHT22;71195;52.528;5.704;2023-08-06T08:33:55;18.70;69.50
81800;DHT22;71195;52.528;5.704;2023-08-06T08:36:27;18.70;69.40
81800;DHT22;71195;52.528;5.704;2023-08-06T08:38:56;18.70;69.40
81800;DHT22;71195;52.528;5.704;2023-08-06T08:41:27;18.80;69.40
81800;DHT22;71195;52.528;5.704;2023-08-06T08:43:59;18.80;69.40
81800;DHT22;71195;52.528;5.704;2023-08-06T08:46:30;18.80;69.30
81800;DHT22;71195;52.528;5.704;2023-08-06T08:48:59;18.80;69.40
81800;DHT22;71195;52.528;5.704;2023-08-06T08:51:29;18.80;69.40
81800;DHT22;71195;52.528;5.704;2023-08-06T08:53:59;18.80;69.40
81800;DHT22;71195;52.528;5.704;2023-08-06T08:56:28;18.80;69.40
81800;DHT22;71195;52.528;5.704;2023-08-06T08:59:00;18.90;69.40
81800;DHT22;71195;52.528;5.704;2023-08-06T09:01:29;18.90;69.40
81800;DHT22;71195;52.528;5.704;2023-08-06T09:03:59;18.90;69.50
81800;DHT22;71195;52.528;5.704;2023-08-06T09:06:30;18.90;69.50
81800;DHT22;71195;52.528;5.704;2023-08-06T09:09:05;18.90;69.50
81800;DHT22;71195;52.528;5.704;2023-08-06T09:11:39;18.90;69.40
81800;DHT22;71195;52.528;5.704;2023-08-06T09:14:14;19.00;69.40
81800;DHT22;71195;52.528;5.704;2023-08-06T09:16:43;19.00;69.30
81800;DHT22;71195;52.528;5.704;2023-08-06T09:19:13;19.00;69.30
81800;DHT22;71195;52.528;5.704;2023-08-06T09:21:46;19.00;69.40
81800;DHT22;71195;52.528;5.704;2023-08-06T09:24:17;19.00;69.30
81800;DHT22;71195;52.528;5.704;2023-08-06T09:26:46;19.00;69.30
81800;DHT22;71195;52.528;5.704;2023-08-06T09:29:18;19.10;69.30
81800;DHT22;71195;52.528;5.704;2023-08-06T09:31:48;19.10;69.20
81800;DHT22;71195;52.528;5.704;2023-08-06T09:34:19;19.10;69.10
81800;DHT22;71195;52.528;5.704;2023-08-06T09:36:50;19.20;69.10
81800;DHT22;71195;52.528;5.704;2023-08-06T09:39:20;19.20;69.00
81800;DHT22;71195;52.528;5.704;2023-08-06T09:41:55;19.30;69.00
81800;DHT22;71195;52.528;5.704;2023-08-06T09:44:29;19.40;69.00
81800;DHT22;71195;52.528;5.704;2023-08-06T09:47:00;19.40;68.90
81800;DHT22;71195;52.528;5.704;2023-08-06T09:49:41;19.50;68.80
81800;DHT22;71195;52.528;5.704;2023-08-06T09:52:13;19.50;68.70
81800;DHT22;71195;52.528;5.704;2023-08-06T09:54:43;19.50;68.80
81800;DHT22;71195;52.528;5.704;2023-08-06T09:57:12;19.50;68.70
81800;DHT22;71195;52.528;5.704;2023-08-06T09:59:46;19.70;68.70
81800;DHT22;71195;52.528;5.704;2023-08-06T10:02:15;19.70;68.70
81800;DHT22;71195;52.528;5.704;2023-08-06T10:04:45;19.70;68.60
81800;DHT22;71195;52.528;5.704;2023-08-06T10:07:15;19.90;68.70
81800;DHT22;71195;52.528;5.704;2023-08-06T10:09:45;19.90;68.50
81800;DHT22;71195;52.528;5.704;2023-08-06T10:12:14;20.00;68.50
81800;DHT22;71195;52.528;5.704;2023-08-06T10:14:50;20.00;68.50
81800;DHT22;71195;52.528;5.704;2023-08-06T10:17:20;20.00;68.40
81800;DHT22;71195;52.528;5.704;2023-08-06T10:19:50;20.10;68.30
81800;DHT22;71195;52.528;5.704;2023-08-06T10:22:21;20.10;68.30
81800;DHT22;71195;52.528;5.704;2023-08-06T10:24:51;20.10;68.30
81800;DHT22;71195;52.528;5.704;2023-08-06T10:27:22;20.10;68.20
81800;DHT22;71195;52.528;5.704;2023-08-06T10:29:54;20.20;68.30
81800;DHT22;71195;52.528;5.704;2023-08-06T10:32:46;20.30;68.30
81800;DHT22;71195;52.528;5.704;2023-08-06T10:35:31;20.30;68.20
81800;DHT22;71195;52.528;5.704;2023-08-06T10:38:04;20.30;68.20
81800;DHT22;71195;52.528;5.704;2023-08-06T10:40:34;20.30;68.30
81800;DHT22;71195;52.528;5.704;2023-08-06T10:43:04;20.40;68.20
81800;DHT22;71195;52.528;5.704;2023-08-06T10:45:38;20.50;68.20
81800;DHT22;71195;52.528;5.704;2023-08-06T10:48:28;20.50;68.20
81800;DHT22;71195;52.528;5.704;2023-08-06T10:51:00;20.50;68.30
81800;DHT22;71195;52.528;5.704;2023-08-06T10:53:30;20.50;68.40
81800;DHT22;71195;52.528;5.704;2023-08-06T10:56:00;20.50;68.40
81800;DHT22;71195;52.528;5.704;2023-08-06T10:58:32;20.50;68.40
81800;DHT22;71195;52.528;5.704;2023-08-06T11:01:04;20.50;68.40
81800;DHT22;71195;52.528;5.704;2023-08-06T11:03:34;20.50;68.50
81800;DHT22;71195;52.528;5.704;2023-08-06T11:06:04;20.50;68.60
81800;DHT22;71195;52.528;5.704;2023-08-06T11:08:34;20.50;68.50
81800;DHT22;71195;52.528;5.704;2023-08-06T11:11:10;20.50;68.60
81800;DHT22;71195;52.528;5.704;2023-08-06T11:13:40;20.50;68.60
81800;DHT22;71195;52.528;5.704;2023-08-06T11:16:12;20.50;68.60
81800;DHT22;71195;52.528;5.704;2023-08-06T11:18:41;20.50;68.60
81800;DHT22;71195;52.528;5.704;2023-08-06T11:21:11;20.40;68.60
81800;DHT22;71195;52.528;5.704;2023-08-06T11:23:41;20.30;68.70
81800;DHT22;71195;52.528;5.704;2023-08-06T11:26:10;20.30;68.70
81800;DHT22;71195;52.528;5.704;2023-08-06T11:28:40;20.30;68.70
81800;DHT22;71195;52.528;5.704;2023-08-06T11:31:20;20.30;68.60
81800;DHT22;71195;52.528;5.704;2023-08-06T11:33:50;20.50;68.50
81800;DHT22;71195;52.528;5.704;2023-08-06T11:36:29;20.50;68.50
81800;DHT22;71195;52.528;5.704;2023-08-06T11:38:59;20.50;68.60
81800;DHT22;71195;52.528;5.704;2023-08-06T11:41:29;20.50;68.50
81800;DHT22;71195;52.528;5.704;2023-08-06T11:43:58;20.60;68.50
81800;DHT22;71195;52.528;5.704;2023-08-06T11:46:49;20.60;68.40
81800;DHT22;71195;52.528;5.704;2023-08-06T11:49:19;20.60;68.50
81800;DHT22;71195;52.528;5.704;2023-08-06T11:51:50;20.50;68.60
81800;DHT22;71195;52.528;5.704;2023-08-06T11:54:31;20.50;68.60
81800;DHT22;71195;52.528;5.704;2023-08-06T11:57:01;20.50;68.60
81800;DHT22;71195;52.528;5.704;2023-08-06T11:59:30;20.50;68.50
81800;DHT22;71195;52.528;5.704;2023-08-06T12:02:03;20.50;68.50
81800;DHT22;71195;52.528;5.704;2023-08-06T12:04:57;20.40;68.50
81800;DHT22;71195;52.528;5.704;2023-08-06T12:07:28;20.30;68.50
81800;DHT22;71195;52.528;5.704;2023-08-06T12:09:57;20.30;68.50
81800;DHT22;71195;52.528;5.704;2023-08-06T12:12:26;20.30;68.50
81800;DHT22;71195;52.528;5.704;2023-08-06T12:14:56;20.10;68.50
81800;DHT22;71195;52.528;5.704;2023-08-06T12:17:28;20.10;68.50
81800;DHT22;71195;52.528;5.704;2023-08-06T12:19:57;20.10;68.50
81800;DHT22;71195;52.528;5.704;2023-08-06T12:22:26;20.00;68.50
81800;DHT22;71195;52.528;5.704;2023-08-06T12:24:58;20.00;68.40
81800;DHT22;71195;52.528;5.704;2023-08-06T12:27:27;20.00;68.40
81800;DHT22;71195;52.528;5.704;2023-08-06T12:29:57;20.00;68.40
81800;DHT22;71195;52.528;5.704;2023-08-06T12:32:28;20.00;68.40
81800;DHT22;71195;52.528;5.704;2023-08-06T12:34:58;20.00;68.30
81800;DHT22;71195;52.528;5.704;2023-08-06T12:37:28;20.00;68.20
81800;DHT22;71195;52.528;5.704;2023-08-06T12:39:57;20.00;68.20
81800;DHT22;71195;52.528;5.704;2023-08-06T12:42:26;20.00;68.20
81800;DHT22;71195;52.528;5.704;2023-08-06T12:44:55;20.00;68.10
81800;DHT22;71195;52.528;5.704;2023-08-06T12:47:25;19.90;68.10
81800;DHT22;71195;52.528;5.704;2023-08-06T12:49:56;19.90;68.10
81800;DHT22;71195;52.528;5.704;2023-08-06T12:52:25;20.00;68.00
81800;DHT22;71195;52.528;5.704;2023-08-06T12:54:55;20.00;68.00
81800;DHT22;71195;52.528;5.704;2023-08-06T12:57:24;20.00;67.90
81800;DHT22;71195;52.528;5.704;2023-08-06T12:59:55;20.00;67.80
81800;DHT22;71195;52.528;5.704;2023-08-06T13:02:24;20.00;67.60
81800;DHT22;71195;52.528;5.704;2023-08-06T13:04:58;20.00;67.60
81800;DHT22;71195;52.528;5.704;2023-08-06T13:07:31;20.00;67.50
81800;DHT22;71195;52.528;5.704;2023-08-06T13:10:00;20.00;67.50
81800;DHT22;71195;52.528;5.704;2023-08-06T13:12:30;20.00;67.40
81800;DHT22;71195;52.528;5.704;2023-08-06T13:14:59;20.00;67.30
81800;DHT22;71195;52.528;5.704;2023-08-06T13:17:28;20.00;67.20
81800;DHT22;71195;52.528;5.704;2023-08-06T13:20:00;20.10;67.10
81800;DHT22;71195;52.528;5.704;2023-08-06T13:22:29;20.30;67.00
81800;DHT22;71195;52.528;5.704;2023-08-06T13:24:58;20.30;67.00
81800;DHT22;71195;52.528;5.704;2023-08-06T13:27:28;20.30;66.90
81800;DHT22;71195;52.528;5.704;2023-08-06T13:29:57;20.30;66.90
81800;DHT22;71195;52.528;5.704;2023-08-06T13:32:28;20.40;66.90
81800;DHT22;71195;52.528;5.704;2023-08-06T13:35:01;20.40;66.80
81800;DHT22;71195;52.528;5.704;2023-08-06T13:37:30;20.50;66.70
81800;DHT22;71195;52.528;5.704;2023-08-06T13:39:59;20.50;66.70
81800;DHT22;71195;52.528;5.704;2023-08-06T13:42:28;20.50;66.70
81800;DHT22;71195;52.528;5.704;2023-08-06T13:44:58;20.60;66.70
81800;DHT22;71195;52.528;5.704;2023-08-06T13:47:30;20.60;66.50
81800;DHT22;71195;52.528;5.704;2023-08-06T13:50:01;20.50;66.50
81800;DHT22;71195;52.528;5.704;2023-08-06T13:52:31;20.50;66.60
81800;DHT22;71195;52.528;5.704;2023-08-06T13:55:01;20.40;66.70
81800;DHT22;71195;52.528;5.704;2023-08-06T13:57:31;20.40;66.70
81800;DHT22;71195;52.528;5.704;2023-08-06T14:00:00;20.30;66.70
81800;DHT22;71195;52.528;5.704;2023-08-06T14:02:38;20.30;66.60
81800;DHT22;71195;52.528;5.704;2023-08-06T14:05:13;20.30;66.60
81800;DHT22;71195;52.528;5.704;2023-08-06T14:07:42;20.40;66.40
81800;DHT22;71195;52.528;5.704;2023-08-06T14:10:11;20.50;66.20
81800;DHT22;71195;52.528;5.704;2023-08-06T14:12:40;20.60;66.00
81800;DHT22;71195;52.528;5.704;2023-08-06T14:15:10;20.70;65.80
81800;DHT22;71195;52.528;5.704;2023-08-06T14:17:40;20.80;65.60
81800;DHT22;71195;52.528;5.704;2023-08-06T14:20:12;20.90;65.40
81800;DHT22;71195;52.528;5.704;2023-08-06T14:22:41;21.00;65.30
81800;DHT22;71195;52.528;5.704;2023-08-06T14:25:10;21.10;65.30
81800;DHT22;71195;52.528;5.704;2023-08-06T14:27:39;21.10;65.40
81800;DHT22;71195;52.528;5.704;2023-08-06T14:30:10;21.10;65.20
81800;DHT22;71195;52.528;5.704;2023-08-06T14:32:39;21.30;65.10
81800;DHT22;71195;52.528;5.704;2023-08-06T14:35:08;21.30;64.90
81800;DHT22;71195;52.528;5.704;2023-08-06T14:37:40;21.30;64.80
81800;DHT22;71195;52.528;5.704;2023-08-06T14:40:11;21.20;64.80
81800;DHT22;71195;52.528;5.704;2023-08-06T14:42:41;21.10;65.00
81800;DHT22;71195;52.528;5.704;2023-08-06T14:45:10;21.10;65.00
81800;DHT22;71195;52.528;5.704;2023-08-06T14:47:39;21.10;64.90
81800;DHT22;71195;52.528;5.704;2023-08-06T14:50:09;21.00;65.00
81800;DHT22;71195;52.528;5.704;2023-08-06T14:52:41;21.00;65.00
81800;DHT22;71195;52.528;5.704;2023-08-06T14:55:10;21.00;65.00
81800;DHT22;71195;52.528;5.704;2023-08-06T14:57:39;21.00;65.00
81800;DHT22;71195;52.528;5.704;2023-08-06T15:00:09;21.10;65.00
81800;DHT22;71195;52.528;5.704;2023-08-06T15:02:38;21.10;64.90
81800;DHT22;71195;52.528;5.704;2023-08-06T15:05:08;21.10;64.80
81800;DHT22;71195;52.528;5.704;2023-08-06T15:07:40;21.10;64.70
81800;DHT22;71195;52.528;5.704;2023-08-06T15:10:09;21.20;64.80
81800;DHT22;71195;52.528;5.704;2023-08-06T15:12:38;21.30;64.70
81800;DHT22;71195;52.528;5.704;2023-08-06T15:15:09;21.30;64.70
81800;DHT22;71195;52.528;5.704;2023-08-06T15:17:38;21.20;64.70
81800;DHT22;71195;52.528;5.704;2023-08-06T15:20:08;21.10;64.80
81800;DHT22;71195;52.528;5.704;2023-08-06T15:22:40;21.10;64.80
81800;DHT22;71195;52.528;5.704;2023-08-06T15:25:09;21.10;64.80
81800;DHT22;71195;52.528;5.704;2023-08-06T15:27:38;21.00;64.90
81800;DHT22;71195;52.528;5.704;2023-08-06T15:30:08;21.00;64.90
81800;DHT22;71195;52.528;5.704;2023-08-06T15:32:38;20.80;64.80
81800;DHT22;71195;52.528;5.704;2023-08-06T15:35:10;20.70;64.80
81800;DHT22;71195;52.528;5.704;2023-08-06T15:37:42;20.60;64.90
81800;DHT22;71195;52.528;5.704;2023-08-06T15:40:11;20.50;64.90
81800;DHT22;71195;52.528;5.704;2023-08-06T15:42:41;20.50;64.90
81800;DHT22;71195;52.528;5.704;2023-08-06T15:45:10;20.50;64.90
81800;DHT22;71195;52.528;5.704;2023-08-06T15:47:39;20.50;64.80
81800;DHT22;71195;52.528;5.704;2023-08-06T15:50:09;20.50;64.60